createdAt,value
2022-12-31T00:00:00.549Z,100.00
2022-12-31T00:02:30.543Z,100.00
2022-12-31T00:04:57.963Z,100.00
2022-12-31T00:07:25.130Z,100.00
2022-12-31T00:09:51.939Z,100.00
2022-12-31T00:12:19.927Z,100.00
2022-12-31T00:14:49.678Z,100.00
2022-12-31T00:17:19.115Z,100.00
2022-12-31T00:19:48.117Z,100.00
2022-12-31T00:22:15.430Z,100.00
2022-12-31T00:24:45.131Z,100.00
2022-12-31T00:27:12.173Z,100.00
2022-12-31T00:29:39.023Z,100.00
2022-12-31T00:32:09.032Z,100.00
2022-12-31T00:34:38.293Z,100.00
2022-12-31T00:37:06.865Z,100.00
2022-12-31T00:39:33.833Z,100.00
2022-12-31T00:42:01.839Z,100.00
2022-12-31T00:44:29.022Z,100.00
2022-12-31T00:46:55.842Z,100.00
2022-12-31T00:49:22.808Z,100.00
2022-12-31T00:51:52.128Z,100.00
2022-12-31T00:54:19.690Z,100.00
2022-12-31T00:56:48.731Z,100.00
2022-12-31T00:59:21.736Z,100.00
2022-12-31T01:01:51.904Z,100.00
2022-12-31T01:04:24.965Z,100.00
2022-12-31T01:06:52.073Z,100.00
2022-12-31T01:09:19.887Z,100.00
2022-12-31T01:11:47.192Z,100.00
2022-12-31T01:14:19.671Z,100.00
2022-12-31T01:16:52.824Z,100.00
2022-12-31T01:19:26.365Z,100.00
2022-12-31T01:21:56.707Z,100.00
2022-12-31T01:24:24.367Z,100.00
2022-12-31T01:26:51.795Z,100.00
2022-12-31T01:29:21.607Z,100.00
2022-12-31T01:31:50.623Z,100.00
2022-12-31T01:34:24.852Z,100.00
2022-12-31T01:36:53.307Z,100.00
2022-12-31T01:39:20.578Z,100.00
2022-12-31T01:41:50.083Z,100.00
2022-12-31T01:44:26.351Z,100.00
2022-12-31T01:47:06.049Z,100.00
2022-12-31T01:49:41.938Z,100.00
2022-12-31T01:52:24.918Z,100.00
2022-12-31T01:54:58.045Z,100.00
2022-12-31T01:57:30.592Z,100.00
2022-12-31T02:00:07.476Z,100.00
2022-12-31T02:02:36.012Z,100.00
2022-12-31T02:05:15.992Z,100.00
2022-12-31T02:07:45.098Z,100.00
2022-12-31T02:10:12.547Z,100.00
2022-12-31T02:12:40.763Z,100.00
2022-12-31T02:15:10.116Z,100.00
2022-12-31T02:18:05.844Z,100.00
2022-12-31T02:20:55.066Z,100.00
2022-12-31T02:23:56.233Z,100.00
2022-12-31T02:26:45.238Z,100.00
2022-12-31T02:29:36.766Z,100.00
2022-12-31T02:32:30.894Z,100.00
2022-12-31T02:35:08.383Z,100.00
2022-12-31T02:37:40.818Z,100.00
2022-12-31T02:40:14.754Z,100.00
2022-12-31T02:42:42.094Z,100.00
2022-12-31T02:45:13.613Z,100.00
2022-12-31T02:47:58.780Z,100.00
2022-12-31T02:50:55.313Z,100.00
2022-12-31T02:53:44.521Z,100.00
2022-12-31T03:08:25.391Z,100.00
2022-12-31T03:10:56.981Z,100.00
2022-12-31T03:13:24.765Z,100.00
2022-12-31T03:15:51.532Z,100.00
2022-12-31T03:18:42.788Z,100.00
2022-12-31T03:21:32.678Z,100.00
2022-12-31T03:24:22.466Z,100.00
2022-12-31T03:26:53.220Z,100.00
2022-12-31T03:29:21.383Z,100.00
2022-12-31T03:31:52.084Z,100.00
2022-12-31T03:34:19.504Z,100.00
2022-12-31T03:36:46.294Z,100.00
2022-12-31T03:39:22.894Z,100.00
2022-12-31T03:41:49.694Z,100.00
2022-12-31T03:44:19.364Z,100.00
2022-12-31T03:46:53.349Z,100.00
2022-12-31T03:49:20.761Z,100.00
2022-12-31T03:51:50.220Z,100.00
2022-12-31T03:54:20.076Z,100.00
2022-12-31T03:56:51.283Z,100.00
2022-12-31T03:59:20.879Z,100.00
2022-12-31T04:01:47.924Z,100.00
2022-12-31T04:04:19.523Z,100.00
2022-12-31T04:06:50.845Z,100.00
2022-12-31T04:09:20.629Z,100.00
2022-12-31T04:11:50.788Z,100.00
2022-12-31T04:14:19.655Z,100.00
2022-12-31T04:16:46.957Z,100.00
2022-12-31T04:19:16.538Z,100.00
2022-12-31T04:21:43.346Z,100.00
2022-12-31T04:24:10.892Z,100.00
2022-12-31T04:26:39.949Z,100.00
2022-12-31T04:29:11.693Z,100.00
2022-12-31T04:31:43.778Z,100.00
2022-12-31T04:34:11.836Z,100.00
2022-12-31T04:36:41.302Z,100.00
2022-12-31T04:39:10.440Z,100.00
2022-12-31T04:41:37.784Z,100.00
2022-12-31T04:44:05.119Z,100.00
2022-12-31T04:46:34.099Z,100.00
2022-12-31T04:49:02.307Z,100.00
2022-12-31T04:51:30.743Z,100.00
2022-12-31T04:54:01.159Z,100.00
2022-12-31T04:56:28.725Z,100.00
2022-12-31T04:58:58.552Z,100.00
2022-12-31T05:01:27.221Z,100.00
2022-12-31T05:03:54.555Z,100.00
2022-12-31T05:06:24.130Z,100.00
2022-12-31T05:08:51.378Z,100.00
2022-12-31T05:11:30.537Z,100.00
2022-12-31T05:13:58.033Z,100.00
2022-12-31T05:16:26.051Z,100.00
2022-12-31T05:18:53.434Z,100.00
2022-12-31T05:21:22.016Z,100.00
2022-12-31T05:23:50.112Z,100.00
2022-12-31T05:26:19.995Z,100.00
2022-12-31T05:28:59.727Z,100.00
2022-12-31T05:31:26.902Z,100.00
2022-12-31T05:33:54.783Z,100.00
2022-12-31T05:36:27.660Z,100.00
2022-12-31T05:38:54.944Z,100.00
2022-12-31T05:41:22.315Z,100.00
2022-12-31T05:43:52.342Z,100.00
2022-12-31T05:46:24.183Z,100.00
2022-12-31T05:48:57.400Z,100.00
2022-12-31T05:51:24.688Z,100.00
2022-12-31T05:54:00.785Z,100.00
2022-12-31T05:56:33.821Z,100.00
2022-12-31T05:59:01.973Z,100.00
2022-12-31T06:01:29.403Z,100.00
2022-12-31T06:03:56.648Z,100.00
2022-12-31T06:06:29.163Z,100.00
2022-12-31T06:09:00.806Z,100.00
2022-12-31T06:11:28.295Z,100.00
2022-12-31T06:13:56.648Z,100.00
2022-12-31T06:16:28.125Z,100.00
2022-12-31T06:19:05.181Z,100.00
2022-12-31T06:21:38.902Z,100.00
2022-12-31T06:24:08.613Z,100.00
2022-12-31T06:26:38.111Z,100.00
2022-12-31T06:29:07.352Z,100.00
2022-12-31T06:31:40.995Z,100.00
2022-12-31T06:34:10.056Z,100.00
2022-12-31T06:36:39.101Z,100.00
2022-12-31T06:39:09.730Z,100.00
2022-12-31T06:41:37.028Z,100.00
2022-12-31T06:44:07.363Z,100.00
2022-12-31T06:46:39.565Z,100.00
2022-12-31T06:49:11.849Z,100.00
2022-12-31T06:51:51.256Z,100.00
2022-12-31T06:54:26.556Z,100.00
2022-12-31T06:57:02.323Z,100.00
2022-12-31T06:59:33.444Z,100.00
2022-12-31T07:03:11.464Z,100.00
2022-12-31T07:05:57.993Z,100.00
2022-12-31T07:08:35.890Z,100.00
2022-12-31T07:11:34.851Z,100.00
2022-12-31T07:14:56.733Z,100.00
2022-12-31T07:18:12.974Z,100.00
2022-12-31T07:21:04.491Z,100.00
2022-12-31T07:23:50.504Z,100.00
2022-12-31T07:26:57.103Z,100.00
2022-12-31T07:29:36.874Z,100.00
2022-12-31T07:32:56.713Z,100.00
2022-12-31T07:37:10.981Z,100.00
2022-12-31T07:43:44.814Z,100.00
2022-12-31T07:50:08.401Z,100.00
2022-12-31T07:53:10.242Z,100.00
2022-12-31T07:56:19.249Z,100.00
2022-12-31T08:03:26.809Z,100.00
2022-12-31T08:06:43.055Z,100.00
2022-12-31T08:17:30.037Z,100.00
2022-12-31T08:24:59.452Z,100.00
2022-12-31T08:37:15.822Z,100.00
2022-12-31T08:44:46.563Z,100.00
2022-12-31T08:52:38.570Z,100.00
2022-12-31T09:15:56.375Z,100.00
2022-12-31T09:28:24.442Z,100.00
2022-12-31T12:32:10.155Z,100.00
2022-12-31T12:49:32.259Z,100.00
2022-12-31T12:58:51.691Z,100.00
2022-12-31T13:05:00.028Z,100.00
2022-12-31T13:07:42.327Z,100.00
2022-12-31T13:20:37.475Z,100.00
2022-12-31T13:24:15.101Z,100.00
2022-12-31T13:27:35.673Z,100.00
2022-12-31T13:30:47.933Z,100.00
2022-12-31T13:34:25.844Z,100.00
2022-12-31T13:38:36.874Z,99.33
2022-12-31T13:45:41.401Z,96.91
2022-12-31T13:49:42.844Z,96.37
2022-12-31T13:53:13.625Z,93.40
2022-12-31T13:56:33.123Z,94.42
2022-12-31T13:59:37.605Z,94.39
2022-12-31T14:11:45.472Z,93.43
2022-12-31T14:14:45.072Z,91.91
2022-12-31T14:18:32.533Z,93.43
2022-12-31T14:21:31.769Z,90.50
2022-12-31T14:25:26.792Z,90.07
2022-12-31T14:46:14.547Z,92.30
2022-12-31T14:50:03.438Z,90.70
2022-12-31T14:53:41.669Z,89.83
2022-12-31T14:56:56.627Z,89.66
2022-12-31T14:59:45.182Z,88.86
2022-12-31T15:03:01.725Z,88.84
2022-12-31T15:14:09.283Z,88.68
2022-12-31T15:17:21.537Z,85.80
2022-12-31T15:20:55.875Z,86.40
2022-12-31T15:24:04.843Z,86.31
2022-12-31T15:30:21.421Z,86.56
2022-12-31T15:33:07.829Z,87.51
2022-12-31T15:35:57.928Z,86.90
2022-12-31T15:42:52.979Z,83.79
2022-12-31T15:45:49.803Z,84.34
2022-12-31T15:48:47.854Z,83.31
2022-12-31T15:51:56.727Z,83.03
2022-12-31T15:54:52.458Z,84.21
2022-12-31T15:57:33.340Z,84.31
2022-12-31T16:03:52.522Z,84.14
2022-12-31T16:06:50.609Z,84.27
2022-12-31T16:09:38.947Z,83.61
2022-12-31T16:15:48.929Z,83.63
2022-12-31T16:19:04.868Z,83.81
2022-12-31T16:25:34.353Z,84.42
2022-12-31T16:28:51.160Z,84.67
2022-12-31T16:31:35.623Z,85.18
2022-12-31T16:34:26.602Z,85.57
2022-12-31T16:37:24.190Z,84.86
2022-12-31T16:40:51.627Z,83.32
2022-12-31T16:47:01.508Z,83.32
2022-12-31T16:50:03.567Z,82.06
2022-12-31T16:53:07.293Z,83.05
2022-12-31T16:58:59.187Z,81.69
2022-12-31T17:02:11.532Z,80.55
2022-12-31T17:04:56.277Z,80.95
2022-12-31T17:11:03.525Z,79.72
2022-12-31T17:13:57.492Z,81.23
2022-12-31T17:16:33.999Z,80.25
2022-12-31T17:19:50.055Z,79.50
2022-12-31T17:22:39.229Z,79.08
2022-12-31T17:26:38.532Z,79.56
2022-12-31T18:09:56.112Z,75.33
2022-12-31T18:12:52.841Z,74.97
2022-12-31T18:19:06.451Z,75.02
2022-12-31T18:22:23.801Z,74.15
2022-12-31T18:25:09.720Z,74.66
2022-12-31T18:27:57.951Z,75.12
2022-12-31T18:30:52.710Z,73.83
2022-12-31T18:33:50.907Z,74.69
2022-12-31T18:36:29.843Z,75.56
2022-12-31T18:39:20.722Z,74.86
2022-12-31T18:41:56.824Z,74.99
2022-12-31T18:44:39.025Z,75.36
2022-12-31T18:47:24.454Z,74.38
2022-12-31T18:52:53.691Z,74.26
2022-12-31T18:55:53.485Z,71.72
2022-12-31T18:59:03.287Z,73.89
2022-12-31T19:04:34.473Z,75.51
2022-12-31T19:07:12.833Z,73.26
2022-12-31T19:09:58.651Z,73.86
2022-12-31T19:12:49.476Z,75.25
2022-12-31T19:15:54.378Z,72.85
2022-12-31T19:18:35.314Z,72.94
2022-12-31T19:21:14.300Z,70.77
2022-12-31T19:23:51.243Z,71.34
2022-12-31T19:26:29.261Z,70.90
2022-12-31T19:28:59.571Z,68.62
2022-12-31T19:31:51.805Z,72.37
2022-12-31T19:34:27.457Z,70.24
2022-12-31T19:37:00.853Z,71.86
2022-12-31T19:39:35.918Z,70.09
2022-12-31T19:42:15.828Z,69.97
2022-12-31T19:44:57.247Z,69.03
2022-12-31T19:47:30.210Z,68.62
2022-12-31T19:50:08.829Z,70.46
2022-12-31T19:52:59.522Z,69.58
2022-12-31T19:55:37.936Z,69.52
2022-12-31T19:58:06.768Z,67.66
2022-12-31T20:00:57.074Z,69.36
2022-12-31T20:03:32.097Z,66.28
2022-12-31T20:06:11.778Z,67.94
2022-12-31T20:08:49.356Z,69.07
2022-12-31T20:11:23.942Z,69.38
2022-12-31T20:14:01.314Z,69.94
2022-12-31T20:16:36.553Z,69.94
2022-12-31T20:19:06.349Z,69.21
2022-12-31T20:21:40.317Z,69.94
2022-12-31T20:24:16.738Z,69.58
2022-12-31T20:26:51.062Z,69.32
2022-12-31T20:30:01.173Z,69.73
2022-12-31T20:32:30.757Z,68.78
2022-12-31T20:35:00.210Z,69.65
2022-12-31T20:37:40.244Z,70.63
2022-12-31T20:40:10.944Z,69.58
2022-12-31T20:42:55.812Z,69.20
2022-12-31T20:45:53.984Z,69.29
2022-12-31T20:49:00.632Z,68.33
2022-12-31T20:51:51.932Z,68.77
2022-12-31T20:54:27.529Z,66.56
2022-12-31T20:57:14.571Z,67.38
2022-12-31T21:00:16.184Z,67.66
2022-12-31T21:03:24.059Z,67.21
2022-12-31T21:06:08.762Z,68.09
2022-12-31T21:09:08.540Z,67.57
2022-12-31T21:11:56.947Z,68.34
2022-12-31T21:14:33.904Z,67.92
2022-12-31T21:17:15.321Z,67.29
2022-12-31T21:19:56.796Z,65.98
2022-12-31T21:26:12.197Z,67.80
2022-12-31T21:28:57.315Z,68.63
2022-12-31T21:31:35.126Z,66.85
2022-12-31T21:34:02.670Z,67.29
2022-12-31T21:37:01.555Z,67.85
2022-12-31T21:39:43.083Z,66.82
2022-12-31T21:42:20.840Z,66.48
2022-12-31T21:45:07.739Z,67.90
2022-12-31T21:47:56.611Z,65.78
2022-12-31T21:50:34.528Z,65.91
2022-12-31T21:53:08.402Z,65.59
2022-12-31T21:55:59.639Z,65.62
2022-12-31T21:58:36.856Z,66.48
2022-12-31T22:01:53.586Z,64.90
2022-12-31T22:05:00.500Z,67.84
2022-12-31T22:07:15.711Z,65.37
2022-12-31T22:10:14.764Z,64.21
2022-12-31T22:13:21.997Z,66.20
2022-12-31T22:16:21.400Z,67.08
2022-12-31T22:19:01.376Z,66.45
2022-12-31T22:21:56.032Z,64.50
2022-12-31T22:24:50.403Z,65.26
2022-12-31T22:27:30.377Z,66.50
2022-12-31T22:30:07.713Z,64.25
2022-12-31T22:32:50.948Z,63.72
2022-12-31T22:35:37.978Z,65.25
2022-12-31T22:38:12.264Z,65.24
2022-12-31T22:40:51.724Z,66.45
2022-12-31T22:43:32.709Z,65.05
2022-12-31T22:46:20.887Z,64.19
2022-12-31T22:49:32.671Z,64.40
2022-12-31T22:52:09.000Z,64.66
2022-12-31T22:54:41.977Z,65.49
2022-12-31T22:57:19.980Z,65.48
2022-12-31T22:59:53.227Z,64.84
2022-12-31T23:02:56.858Z,66.26
2022-12-31T23:05:34.293Z,65.20
2022-12-31T23:11:05.842Z,63.80
2022-12-31T23:14:14.711Z,64.45
2022-12-31T23:17:00.610Z,65.39
2022-12-31T23:20:10.778Z,63.49
2022-12-31T23:23:13.500Z,63.51
2022-12-31T23:25:53.059Z,62.26
2022-12-31T23:28:27.606Z,64.12
2022-12-31T23:31:15.007Z,64.06
2022-12-31T23:33:56.205Z,64.13
2022-12-31T23:36:29.358Z,64.52
2022-12-31T23:39:11.035Z,64.48
2022-12-31T23:42:14.851Z,65.37
2022-12-31T23:44:46.653Z,63.82
2022-12-31T23:47:22.393Z,63.75
2022-12-31T23:49:55.033Z,64.27
2022-12-31T23:52:25.497Z,63.62
2022-12-31T23:55:05.850Z,62.57
2022-12-31T23:57:38.253Z,63.00
